Impacts TAF Board
For situational awareness. Not to be used for flight planning purposes.
IDs:

KSEZ - Sedona Arpt, AZ, US

Issued at 1720 UTC 01 Feb 2023
Updated at 2209 UTC 01 Feb 2023
Potential Impact None Slight Moderate High
Time2155Z 01/23Z 02/00Z 02/01Z 02/02Z 02/03Z 02/04Z 02/05Z 02/06Z 02/07Z 02/08Z 02/09Z 02/10Z 02/11Z>>
Type OBS PRVL PRVL PRVL PRVL PRVL PRVL PRVL PRVL PRVL PRVL PRVL PRVL PRVL
VIS 10 >6 >6 >6 >6 >6 >6 >6 >6 >6 >6 >6 >6 >6
CIG -- -- -- -- -- -- -- -- -- -- -- -- -- --
Cover CLR SKC SKC SKC SKC SKC SKC SKC SKC SKC SKC SKC SKC SKC
FltCat VFR VFR VFR VFR VFR VFR VFR VFR VFR VFR VFR VFR VFR VFR
WX -- -- -- -- -- -- -- -- -- -- -- -- -- --
WDir 20 50 50 50 50 40 40 40 40 40 40 40 40 40
WSpd 7 9 9 9 9 13 13 13 13 13 13 13 13 13
WGst -- 16 16 16 16 25 25 25 25 25 25 25 25 25
WSHgt -- -- -- -- -- -- -- -- -- -- -- -- -- --
WSDir -- -- -- -- -- -- -- -- -- -- -- -- -- --
WSSpd -- -- -- -- -- -- -- -- -- -- -- -- -- --
R03/21
XWnd 3 -1 -1 -1 -1 1 1 1 1 1 1 1 1 1
XGst -- -1 -1 -1 -1 2 2 2 2 2 2 2 2 2
HWnd 6 9 9 9 9 13 13 13 13 13 13 13 13 13
HGst -- 16 16 16 16 25 25 25 25 25 25 25 25 25

NOTE: LAMP data beyond the time of the TAF data is denoted as LAMP in Type and colored magenta.

Raw TAF
KSEZ 011720Z 0118/0218 05012G21KT P6SM SKC
  FM012100 05009G16KT P6SM SKC
  FM020300 04013G25KT P6SM SKC


Raw METAR
KSEZ 012155Z AUTO 02007KT 10SM CLR 12/M06 A3011 RMK AO2
KSEZ 012135Z AUTO 05009KT 040V100 10SM CLR 12/M06 A3010 RMK AO2
KSEZ 012115Z AUTO 05005KT 10SM CLR 12/M07 A3011 RMK AO2
KSEZ 012055Z AUTO 08008KT 10SM CLR 12/M06 A3011 RMK AO2
KSEZ 012035Z AUTO 08005KT 10SM CLR 12/M06 A3011 RMK AO2
KSEZ 012015Z AUTO 09005KT 10SM CLR 11/M07 A3012 RMK AO2
KSEZ 011955Z AUTO 09010G16KT 10SM CLR 12/M06 A3013 RMK AO2
KSEZ 011935Z AUTO 11008G14KT 070V140 10SM CLR 12/M06 A3014 RMK AO2

METAR Board
Radar Display
Forecast Discussion

For situational awareness. Not to be used for flight planning purposes.